Time;durP1;ratioP1;P1;durP2;ratioP2;P2;SDS_P1;SDS_P2;PMS_P1;PMS_P2;Temp;Humidity;BMP_temperature;BMP_pressure;BME280_temperature;BME280_humidity;BME280_pressure;Samples;Min_cycle;Max_cycle;Signal;HPM_P1;HPM_P2
2022/08/24 00:00:12;;;;;;;0.00;0.00;;;;;;;;;;5054096;28;20231;-70
2022/08/24 00:02:39;;;;;;;0.00;0.00;;;;;;;;;;5079002;28;20337;-70
2022/08/24 00:05:06;;;;;;;0.00;0.00;;;;;;;;;;5058289;28;20204;-71
2022/08/24 00:07:33;;;;;;;0.00;0.00;;;;;;;;;;5078865;28;20272;-70
2022/08/24 00:10:00;;;;;;;0.10;0.10;;;;;;;;;;5063786;28;20207;-70
2022/08/24 00:12:27;;;;;;;0.00;0.00;;;;;;;;;;5068851;28;20252;-71
2022/08/24 00:14:54;;;;;;;0.00;0.00;;;;;;;;;;5063880;28;20217;-70
2022/08/24 00:17:21;;;;;;;0.00;0.00;;;;;;;;;;5068769;28;20369;-70
2022/08/24 00:19:47;;;;;;;0.00;0.00;;;;;;;;;;5063707;28;20298;-71
2022/08/24 00:22:13;;;;;;;0.00;0.00;;;;;;;;;;5068620;28;20304;-70
2022/08/24 00:24:40;;;;;;;0.10;0.10;;;;;;;;;;5063612;28;20282;-71
2022/08/24 00:27:06;;;;;;;0.00;0.00;;;;;;;;;;5068653;28;20423;-70
2022/08/24 00:29:34;;;;;;;0.00;0.00;;;;;;;;;;5063456;28;20242;-70
2022/08/24 00:32:01;;;;;;;0.00;0.00;;;;;;;;;;5068019;28;20254;-71
2022/08/24 00:34:28;;;;;;;0.00;0.00;;;;;;;;;;5064030;28;20207;-70
2022/08/24 00:36:55;;;;;;;0.00;0.00;;;;;;;;;;5067042;28;20596;-72
2022/08/24 00:39:21;;;;;;;0.00;0.00;;;;;;;;;;5064580;28;20213;-70
2022/08/24 00:41:49;;;;;;;0.00;0.00;;;;;;;;;;5066031;28;20242;-71
2022/08/24 00:44:16;;;;;;;0.10;0.10;;;;;;;;;;5065187;28;20223;-71
2022/08/24 00:46:47;;;;;;;0.00;0.00;;;;;;;;;;5065180;28;20247;-72
2022/08/24 00:49:19;;;;;;;0.00;0.00;;;;;;;;;;5065623;28;20413;-72
2022/08/24 00:51:49;;;;;;;0.00;0.00;;;;;;;;;;5065290;28;20242;-70
2022/08/24 00:54:17;;;;;;;0.00;0.00;;;;;;;;;;5064878;28;20430;-71
2022/08/24 00:56:45;;;;;;;0.00;0.00;;;;;;;;;;5065094;28;20288;-71
2022/08/24 00:59:14;;;;;;;0.00;0.00;;;;;;;;;;5065194;28;20219;-70
2022/08/24 01:01:41;;;;;;;0.10;0.10;;;;;;;;;;5064790;28;20249;-71
2022/08/24 01:04:10;;;;;;;0.00;0.00;;;;;;;;;;5064733;28;20204;-71
2022/08/24 01:06:36;;;;;;;0.00;0.00;;;;;;;;;;5063983;28;20248;-70
2022/08/24 01:09:04;;;;;;;0.00;0.00;;;;;;;;;;5066530;28;20230;-71
2022/08/24 01:11:32;;;;;;;0.00;0.00;;;;;;;;;;5063289;28;20668;-70
2022/08/24 01:13:59;;;;;;;0.00;0.00;;;;;;;;;;5066888;28;20245;-70
2022/08/24 01:19:13;;;;;;;0.00;0.00;;;;;;;;;;5041743;28;20257;-70
2022/08/24 01:21:45;;;;;;;0.00;0.00;;;;;;;;;;5064219;28;20242;-71
2022/08/24 01:24:14;;;;;;;0.00;0.00;;;;;;;;;;5064922;28;20196;-71
2022/08/24 01:26:43;;;;;;;0.00;0.00;;;;;;;;;;5064261;28;20432;-70
2022/08/24 01:29:11;;;;;;;0.00;0.00;;;;;;;;;;5065254;28;20231;-70
2022/08/24 01:31:37;;;;;;;0.00;0.00;;;;;;;;;;5063970;28;20264;-70
2022/08/24 01:34:04;;;;;;;0.10;0.10;;;;;;;;;;5065643;28;20206;-70
2022/08/24 01:36:32;;;;;;;0.00;0.00;;;;;;;;;;5062794;28;20314;-71
2022/08/24 01:39:01;;;;;;;0.00;0.00;;;;;;;;;;5066284;28;20291;-71
2022/08/24 01:41:29;;;;;;;0.00;0.00;;;;;;;;;;5062431;28;20246;-71
2022/08/24 01:43:55;;;;;;;0.00;0.00;;;;;;;;;;5066694;28;20213;-71
2022/08/24 01:46:22;;;;;;;0.00;0.00;;;;;;;;;;5061676;28;20254;-71
2022/08/24 01:48:48;;;;;;;0.00;0.00;;;;;;;;;;5067683;28;20277;-71
2022/08/24 01:51:14;;;;;;;0.00;0.00;;;;;;;;;;5060539;28;20254;-71
2022/08/24 01:53:41;;;;;;;0.10;0.10;;;;;;;;;;5068623;28;20210;-72
2022/08/24 01:56:07;;;;;;;0.00;0.00;;;;;;;;;;5059590;28;20329;-72
2022/08/24 01:58:35;;;;;;;0.00;0.00;;;;;;;;;;5069267;28;20225;-70
2022/08/24 02:01:01;;;;;;;0.00;0.00;;;;;;;;;;5057906;28;20242;-70
2022/08/24 02:03:28;;;;;;;0.10;0.10;;;;;;;;;;5070504;28;20244;-72
2022/08/24 02:05:55;;;;;;;0.00;0.00;;;;;;;;;;5057639;28;20447;-70
2022/08/24 02:08:22;;;;;;;0.00;0.00;;;;;;;;;;5070444;28;20205;-71
2022/08/24 02:10:48;;;;;;;0.00;0.00;;;;;;;;;;5057161;28;20241;-71
2022/08/24 02:13:14;;;;;;;0.00;0.00;;;;;;;;;;5071569;28;20205;-69
2022/08/24 02:15:42;;;;;;;0.00;0.00;;;;;;;;;;5059170;28;20276;-70
2022/08/24 02:18:10;;;;;;;0.00;0.00;;;;;;;;;;5076627;28;20198;-70
2022/08/24 02:20:37;;;;;;;0.00;0.00;;;;;;;;;;5059325;28;20258;-70
2022/08/24 02:23:03;;;;;;;0.00;0.00;;;;;;;;;;5076990;28;20274;-70
2022/08/24 02:25:30;;;;;;;0.10;0.10;;;;;;;;;;5058655;28;20246;-70
2022/08/24 02:27:56;;;;;;;0.00;0.00;;;;;;;;;;5078182;28;20214;-70
2022/08/24 02:30:23;;;;;;;0.00;0.00;;;;;;;;;;5057715;28;20320;-70
2022/08/24 02:32:50;;;;;;;0.00;0.00;;;;;;;;;;5078839;28;20395;-70
2022/08/24 02:35:17;;;;;;;0.00;0.00;;;;;;;;;;5056742;28;20214;-71
2022/08/24 02:37:43;;;;;;;0.00;0.00;;;;;;;;;;5079643;28;20390;-72
2022/08/24 02:40:11;;;;;;;0.00;0.00;;;;;;;;;;5055808;28;20231;-70
2022/08/24 02:42:37;;;;;;;0.00;0.00;;;;;;;;;;5080063;28;20253;-70
2022/08/24 02:45:04;;;;;;;0.00;0.00;;;;;;;;;;5065284;28;20230;-71
2022/08/24 02:47:30;;;;;;;0.00;0.00;;;;;;;;;;5053932;28;20209;-71
2022/08/24 02:49:58;;;;;;;0.00;0.00;;;;;;;;;;5065475;28;20271;-70
2022/08/24 02:52:27;;;;;;;0.10;0.10;;;;;;;;;;5070415;28;20284;-72
2022/08/24 02:54:53;;;;;;;0.00;0.00;;;;;;;;;;5065680;28;20208;-72
2022/08/24 02:57:19;;;;;;;0.00;0.00;;;;;;;;;;5070675;28;20484;-70
2022/08/24 02:59:46;;;;;;;0.00;0.00;;;;;;;;;;5065524;28;20387;-71
2022/08/24 03:02:12;;;;;;;0.00;0.00;;;;;;;;;;5070150;28;20237;-70
2022/08/24 03:04:38;;;;;;;0.00;0.00;;;;;;;;;;5065260;28;20234;-71
2022/08/24 03:07:06;;;;;;;0.00;0.00;;;;;;;;;;5070098;28;20237;-71
2022/08/24 03:09:32;;;;;;;0.00;0.00;;;;;;;;;;5065017;28;20499;-71
2022/08/24 03:11:59;;;;;;;0.00;0.00;;;;;;;;;;5069264;28;20238;-70
2022/08/24 03:14:25;;;;;;;0.00;0.00;;;;;;;;;;5065611;28;20492;-70
2022/08/24 03:16:52;;;;;;;0.00;0.00;;;;;;;;;;5068241;28;20320;-71
2022/08/24 03:19:19;;;;;;;0.10;0.10;;;;;;;;;;5066445;28;20276;-70
2022/08/24 03:21:45;;;;;;;0.00;0.00;;;;;;;;;;5066881;28;20233;-71
2022/08/24 03:24:13;;;;;;;0.00;0.00;;;;;;;;;;5067311;28;20214;-70
2022/08/24 03:26:39;;;;;;;0.00;0.00;;;;;;;;;;5065440;28;20238;-71
2022/08/24 03:29:06;;;;;;;0.00;0.00;;;;;;;;;;5067757;28;20212;-70
2022/08/24 03:31:32;;;;;;;0.00;0.00;;;;;;;;;;5065557;28;20288;-70
2022/08/24 03:33:58;;;;;;;0.00;0.00;;;;;;;;;;5068905;28;20275;-70
2022/08/24 03:36:25;;;;;;;0.00;0.00;;;;;;;;;;5064448;28;20541;-70
2022/08/24 03:38:51;;;;;;;0.00;0.00;;;;;;;;;;5069616;28;20230;-69
2022/08/24 03:41:19;;;;;;;0.00;0.00;;;;;;;;;;5062993;28;20252;-70
2022/08/24 03:43:45;;;;;;;0.00;0.00;;;;;;;;;;5070440;28;20282;-71
2022/08/24 03:46:12;;;;;;;0.00;0.00;;;;;;;;;;5062458;28;20253;-71
2022/08/24 03:48:39;;;;;;;0.00;0.00;;;;;;;;;;5070873;28;20204;-71
2022/08/24 03:51:05;;;;;;;0.00;0.00;;;;;;;;;;5061603;28;20450;-70
2022/08/24 03:53:32;;;;;;;0.00;0.00;;;;;;;;;;5071791;28;20267;-69
2022/08/24 03:55:58;;;;;;;0.00;0.00;;;;;;;;;;5060590;28;20250;-71
2022/08/24 03:58:26;;;;;;;0.00;0.00;;;;;;;;;;5072127;28;20207;-70
2022/08/24 04:00:53;;;;;;;0.00;0.00;;;;;;;;;;5059068;28;20246;-71
2022/08/24 04:03:19;;;;;;;0.00;0.00;;;;;;;;;;5073294;28;20207;-73
2022/08/24 04:05:46;;;;;;;0.00;0.00;;;;;;;;;;5058200;28;20524;-70
2022/08/24 04:08:13;;;;;;;0.00;0.00;;;;;;;;;;5074734;28;20429;-71
2022/08/24 04:10:43;;;;;;;0.00;0.00;;;;;;;;;;5057969;28;20269;-70
2022/08/24 04:13:09;;;;;;;0.00;0.00;;;;;;;;;;5074507;28;20432;-71
2022/08/24 04:15:40;;;;;;;0.00;0.00;;;;;;;;;;5057611;28;20310;-70
2022/08/24 04:18:06;;;;;;;0.00;0.00;;;;;;;;;;5074668;28;20222;-71
2022/08/24 04:20:37;;;;;;;0.00;0.00;;;;;;;;;;5056765;28;20306;-71
2022/08/24 04:23:04;;;;;;;0.00;0.00;;;;;;;;;;5075057;28;20543;-71
2022/08/24 04:25:31;;;;;;;0.00;0.00;;;;;;;;;;5056673;28;20409;-72
2022/08/24 04:27:57;;;;;;;0.00;0.00;;;;;;;;;;5076021;28;20209;-71
2022/08/24 04:30:23;;;;;;;0.03;0.03;;;;;;;;;;5055521;28;20213;-71
2022/08/24 04:32:51;;;;;;;0.10;0.10;;;;;;;;;;5076761;28;20479;-71
2022/08/24 04:35:19;;;;;;;0.00;0.00;;;;;;;;;;5054778;28;20215;-71
2022/08/24 04:37:46;;;;;;;0.00;0.00;;;;;;;;;;5077040;28;20211;-71
2022/08/24 04:40:12;;;;;;;0.00;0.00;;;;;;;;;;5053943;28;20499;-71
2022/08/24 04:42:38;;;;;;;0.10;0.10;;;;;;;;;;5077910;28;20225;-70
2022/08/24 04:45:05;;;;;;;0.00;0.00;;;;;;;;;;5062674;28;20309;-70
2022/08/24 04:47:31;;;;;;;0.00;0.00;;;;;;;;;;5076760;28;20227;-71
2022/08/24 04:50:02;;;;;;;0.00;0.00;;;;;;;;;;5063299;28;20250;-71
2022/08/24 04:52:28;;;;;;;0.00;0.00;;;;;;;;;;5068296;28;20246;-71
2022/08/24 04:54:55;;;;;;;0.00;0.00;;;;;;;;;;5063426;28;20510;-70
2022/08/24 04:57:21;;;;;;;0.00;0.00;;;;;;;;;;5068108;28;20262;-70
2022/08/24 04:59:48;;;;;;;0.00;0.00;;;;;;;;;;5063162;28;20213;-71
2022/08/24 05:02:14;;;;;;;0.00;0.00;;;;;;;;;;5067873;28;20237;-71
2022/08/24 05:04:40;;;;;;;0.05;0.05;;;;;;;;;;5063129;28;20478;-71
2022/08/24 05:07:11;;;;;;;0.00;0.00;;;;;;;;;;5068142;28;20242;-70
2022/08/24 05:09:37;;;;;;;0.00;0.00;;;;;;;;;;5063132;28;20218;-70
2022/08/24 05:12:04;;;;;;;0.00;0.00;;;;;;;;;;5067633;28;20492;-71
2022/08/24 05:14:30;;;;;;;0.00;0.00;;;;;;;;;;5062919;28;20218;-71
2022/08/24 05:16:57;;;;;;;0.00;0.00;;;;;;;;;;5066747;28;20249;-72
2022/08/24 05:19:23;;;;;;;0.00;0.00;;;;;;;;;;5063543;28;20210;-71
2022/08/24 05:21:50;;;;;;;0.05;0.05;;;;;;;;;;5065447;28;20241;-71
2022/08/24 05:24:18;;;;;;;0.00;0.00;;;;;;;;;;5064115;28;20204;-72
2022/08/24 05:26:44;;;;;;;0.00;0.00;;;;;;;;;;5064870;28;20278;-71
2022/08/24 05:29:11;;;;;;;0.00;0.00;;;;;;;;;;5065032;28;20215;-70
2022/08/24 05:31:38;;;;;;;0.00;0.00;;;;;;;;;;5063957;28;20591;-70
2022/08/24 05:34:05;;;;;;;0.00;0.00;;;;;;;;;;5066125;28;20291;-71
2022/08/24 05:36:32;;;;;;;0.00;0.00;;;;;;;;;;5063189;28;20306;-71
2022/08/24 05:39:00;;;;;;;0.00;0.00;;;;;;;;;;5066406;28;20514;-71
2022/08/24 05:41:29;;;;;;;0.00;0.00;;;;;;;;;;5062414;28;20297;-70
2022/08/24 05:43:55;;;;;;;0.00;0.00;;;;;;;;;;5067314;28;20432;-71
2022/08/24 05:46:21;;;;;;;0.00;0.00;;;;;;;;;;5061816;28;20239;-72
2022/08/24 05:48:48;;;;;;;0.00;0.00;;;;;;;;;;5067766;28;20452;-70
2022/08/24 05:51:14;;;;;;;0.00;0.00;;;;;;;;;;5060823;28;20242;-71
2022/08/24 05:53:41;;;;;;;0.00;0.00;;;;;;;;;;5068674;28;20281;-71
2022/08/24 05:56:08;;;;;;;0.00;0.00;;;;;;;;;;5060228;28;20250;-72
2022/08/24 05:58:37;;;;;;;0.00;0.00;;;;;;;;;;5069342;28;20236;-71
2022/08/24 06:01:09;;;;;;;0.00;0.00;;;;;;;;;;5058964;28;20246;-70
2022/08/24 06:03:35;;;;;;;0.00;0.00;;;;;;;;;;5069818;28;20281;-72
2022/08/24 06:06:02;;;;;;;0.00;0.00;;;;;;;;;;5059060;28;20239;-72
2022/08/24 06:08:29;;;;;;;0.00;0.00;;;;;;;;;;5070077;28;20518;-71
2022/08/24 06:10:57;;;;;;;0.00;0.00;;;;;;;;;;5058415;28;20243;-72
2022/08/24 06:13:23;;;;;;;0.00;0.00;;;;;;;;;;5071068;28;20277;-71
2022/08/24 06:16:01;;;;;;;0.00;0.00;;;;;;;;;;5057541;28;20243;-72
2022/08/24 06:18:28;;;;;;;0.00;0.00;;;;;;;;;;5070064;28;20196;-71
2022/08/24 06:20:54;;;;;;;0.00;0.00;;;;;;;;;;5058289;28;20510;-71
2022/08/24 06:23:20;;;;;;;0.10;0.10;;;;;;;;;;5071179;28;20238;-71
2022/08/24 06:28:32;;;;;;;0.00;0.00;;;;;;;;;;5069820;28;20248;-81
2022/08/24 06:31:04;;;;;;;0.10;0.10;;;;;;;;;;5059034;28;20284;-80
2022/08/24 06:33:30;;;;;;;0.00;0.00;;;;;;;;;;5072147;28;20215;-80
2022/08/24 06:35:56;;;;;;;0.00;0.00;;;;;;;;;;5059586;28;20251;-79
2022/08/24 06:38:23;;;;;;;0.00;0.00;;;;;;;;;;5070997;28;20270;-79
2022/08/24 06:40:49;;;;;;;0.00;0.00;;;;;;;;;;5057305;28;20413;-79
2022/08/24 06:43:15;;;;;;;0.00;0.00;;;;;;;;;;5071677;28;20219;-79
2022/08/24 06:45:42;;;;;;;0.00;0.00;;;;;;;;;;5056336;28;20242;-72
2022/08/24 06:48:10;;;;;;;0.00;0.00;;;;;;;;;;5072452;28;20527;-72
2022/08/24 06:50:37;;;;;;;0.00;0.00;;;;;;;;;;5055721;28;20468;-71
2022/08/24 06:53:03;;;;;;;0.00;0.00;;;;;;;;;;5072966;28;20207;-72
2022/08/24 06:55:29;;;;;;;0.00;0.00;;;;;;;;;;5054629;28;20302;-72
2022/08/24 06:57:56;;;;;;;0.00;0.00;;;;;;;;;;5073868;28;20204;-71
2022/08/24 07:00:23;;;;;;;0.00;0.00;;;;;;;;;;5054535;28;20204;-71
2022/08/24 07:02:50;;;;;;;0.00;0.00;;;;;;;;;;5077971;28;20216;-71
2022/08/24 07:05:18;;;;;;;0.00;0.00;;;;;;;;;;5056505;28;20235;-71
2022/08/24 07:07:45;;;;;;;0.00;0.00;;;;;;;;;;5078676;28;20200;-72
2022/08/24 07:10:12;;;;;;;0.00;0.00;;;;;;;;;;5055982;28;20476;-72
2022/08/24 07:12:38;;;;;;;0.00;0.00;;;;;;;;;;5079431;28;20192;-73
2022/08/24 07:15:05;;;;;;;0.00;0.00;;;;;;;;;;5061097;28;20284;-70
2022/08/24 07:17:31;;;;;;;0.00;0.00;;;;;;;;;;5080155;28;20216;-73
2022/08/24 07:19:58;;;;;;;0.00;0.00;;;;;;;;;;5064956;28;20231;-72
2022/08/24 07:22:25;;;;;;;0.00;0.00;;;;;;;;;;5069905;28;20302;-71
2022/08/24 07:24:51;;;;;;;0.00;0.00;;;;;;;;;;5064873;28;20204;-70
2022/08/24 07:27:18;;;;;;;0.00;0.00;;;;;;;;;;5069914;28;20239;-69
2022/08/24 07:29:44;;;;;;;0.00;0.00;;;;;;;;;;5064914;28;20226;-70
2022/08/24 07:32:11;;;;;;;0.00;0.00;;;;;;;;;;5069897;28;20581;-71
2022/08/24 07:34:37;;;;;;;0.00;0.00;;;;;;;;;;5064612;28;20205;-73
2022/08/24 07:37:04;;;;;;;0.00;0.00;;;;;;;;;;5069461;28;20238;-72
2022/08/24 07:39:32;;;;;;;0.00;0.00;;;;;;;;;;5064455;28;20246;-73
2022/08/24 07:41:59;;;;;;;0.00;0.00;;;;;;;;;;5068876;28;20243;-75
2022/08/24 07:44:25;;;;;;;0.00;0.00;;;;;;;;;;5065093;28;20514;-76
2022/08/24 07:46:52;;;;;;;0.00;0.00;;;;;;;;;;5067943;28;20245;-75
2022/08/24 07:49:18;;;;;;;0.00;0.00;;;;;;;;;;5066081;28;20212;-75
2022/08/24 07:51:44;;;;;;;0.00;0.00;;;;;;;;;;5066969;28;20236;-74
2022/08/24 07:54:12;;;;;;;0.00;0.00;;;;;;;;;;5067208;28;20272;-73
2022/08/24 07:56:39;;;;;;;0.00;0.00;;;;;;;;;;5066151;28;20460;-73
2022/08/24 07:59:06;;;;;;;0.00;0.00;;;;;;;;;;5067376;28;20204;-75
2022/08/24 08:01:33;;;;;;;0.00;0.00;;;;;;;;;;5065231;28;20630;-75
2022/08/24 08:03:59;;;;;;;0.00;0.00;;;;;;;;;;5068208;28;20283;-73
2022/08/24 08:06:25;;;;;;;0.00;0.00;;;;;;;;;;5064385;28;20239;-74
2022/08/24 08:08:52;;;;;;;0.00;0.00;;;;;;;;;;5069530;28;20235;-74
2022/08/24 08:11:18;;;;;;;0.00;0.00;;;;;;;;;;5063436;28;20251;-74
2022/08/24 08:13:46;;;;;;;0.00;0.00;;;;;;;;;;5069527;28;20200;-74
2022/08/24 08:16:13;;;;;;;0.00;0.00;;;;;;;;;;5062455;28;20302;-75
2022/08/24 08:18:39;;;;;;;0.00;0.00;;;;;;;;;;5070697;28;20280;-72
2022/08/24 08:24:13;;;;;;;0.00;0.00;;;;;;;;;;5061303;28;20255;-72
2022/08/24 08:26:37;;;;;;;0.00;0.00;;;;;;;;;;5065144;28;20338;-73
2022/08/24 08:29:05;;;;;;;0.00;0.00;;;;;;;;;;5067261;28;20211;-73
2022/08/24 08:31:31;;;;;;;0.00;0.00;;;;;;;;;;5064564;28;20392;-74
2022/08/24 08:33:58;;;;;;;0.00;0.00;;;;;;;;;;5067811;28;20200;-73
2022/08/24 08:36:25;;;;;;;0.00;0.00;;;;;;;;;;5063310;28;20249;-73
2022/08/24 08:38:52;;;;;;;0.00;0.00;;;;;;;;;;5068700;28;20487;-75
2022/08/24 08:41:32;;;;;;;0.00;0.00;;;;;;;;;;5062661;28;20298;-73
2022/08/24 08:44:01;;;;;;;0.00;0.00;;;;;;;;;;5067679;28;20212;-74
2022/08/24 08:46:37;;;;;;;0.00;0.00;;;;;;;;;;5063529;28;20239;-75
2022/08/24 08:49:18;;;;;;;0.00;0.00;;;;;;;;;;5066739;28;20206;-74
2022/08/24 08:52:13;;;;;;;0.00;0.00;;;;;;;;;;5064237;28;20239;-72
2022/08/24 08:54:51;;;;;;;0.00;0.00;;;;;;;;;;5063367;28;20271;-73
2022/08/24 08:57:23;;;;;;;0.00;0.00;;;;;;;;;;5068387;28;20301;-73
2022/08/24 09:00:10;;;;;;;0.10;0.10;;;;;;;;;;5063349;28;20359;-74
2022/08/24 09:03:07;;;;;;;0.00;0.00;;;;;;;;;;5047141;28;20315;-74
2022/08/24 09:05:47;;;;;;;0.00;0.00;;;;;;;;;;5056618;28;20266;-75
2022/08/24 09:08:19;;;;;;;0.00;0.00;;;;;;;;;;5072805;28;20199;-72
2022/08/24 09:10:56;;;;;;;0.00;0.00;;;;;;;;;;5057962;28;20318;-73
2022/08/24 09:13:42;;;;;;;0.00;0.00;;;;;;;;;;5071493;28;20211;-74
2022/08/24 09:16:17;;;;;;;0.00;0.00;;;;;;;;;;5061309;28;20239;-75
2022/08/24 09:18:50;;;;;;;0.00;0.00;;;;;;;;;;5069390;28;20364;-73
2022/08/24 09:21:33;;;;;;;0.00;0.00;;;;;;;;;;5061687;28;20239;-72
2022/08/24 09:24:06;;;;;;;0.00;0.00;;;;;;;;;;5065628;28;20283;-73
2022/08/24 09:26:38;;;;;;;0.00;0.00;;;;;;;;;;5063479;28;20277;-74
2022/08/24 09:29:09;;;;;;;0.00;0.00;;;;;;;;;;5065855;28;20215;-74
2022/08/24 09:31:47;;;;;;;0.00;0.00;;;;;;;;;;5063976;28;20239;-75
2022/08/24 09:34:18;;;;;;;0.00;0.00;;;;;;;;;;5065028;28;20431;-74
2022/08/24 09:36:52;;;;;;;0.00;0.00;;;;;;;;;;5065209;28;20247;-73
2022/08/24 09:39:27;;;;;;;0.00;0.00;;;;;;;;;;5064035;28;20215;-74
2022/08/24 09:42:08;;;;;;;0.00;0.00;;;;;;;;;;5066301;28;20559;-74
2022/08/24 09:44:55;;;;;;;0.00;0.00;;;;;;;;;;5062501;28;20348;-73
2022/08/24 09:47:32;;;;;;;0.00;0.00;;;;;;;;;;5043887;28;20239;-73
2022/08/24 09:50:17;;;;;;;0.00;0.00;;;;;;;;;;5062725;28;20206;-74
2022/08/24 09:52:53;;;;;;;0.00;0.00;;;;;;;;;;5062319;28;20407;-74
2022/08/24 09:55:31;;;;;;;0.00;0.00;;;;;;;;;;5054040;28;20208;-74
2022/08/24 09:58:05;;;;;;;0.00;0.00;;;;;;;;;;5074119;28;20206;-74
2022/08/24 10:00:37;;;;;;;0.00;0.00;;;;;;;;;;5055394;28;20239;-74
2022/08/24 10:03:10;;;;;;;0.00;0.00;;;;;;;;;;5073631;28;20523;-74
2022/08/24 10:05:53;;;;;;;0.00;0.00;;;;;;;;;;5056043;28;20255;-73
2022/08/24 10:08:27;;;;;;;0.00;0.00;;;;;;;;;;5071560;28;20223;-73
2022/08/24 10:10:58;;;;;;;0.00;0.00;;;;;;;;;;5058000;28;20303;-74
2022/08/24 10:13:29;;;;;;;0.00;0.00;;;;;;;;;;5070665;28;20231;-74
2022/08/24 10:16:11;;;;;;;0.00;0.00;;;;;;;;;;5058353;28;20545;-75
2022/08/24 10:18:45;;;;;;;0.00;0.00;;;;;;;;;;5069167;28;20358;-74
2022/08/24 10:21:30;;;;;;;0.00;0.00;;;;;;;;;;5060245;28;20288;-74
2022/08/24 10:24:04;;;;;;;0.00;0.00;;;;;;;;;;5066435;28;20239;-74
2022/08/24 10:26:33;;;;;;;0.00;0.00;;;;;;;;;;5062760;28;20334;-75
2022/08/24 10:29:11;;;;;;;0.00;0.00;;;;;;;;;;5066035;28;20343;-74
2022/08/24 10:31:44;;;;;;;0.00;0.00;;;;;;;;;;5063535;28;20239;-75
2022/08/24 10:34:22;;;;;;;0.00;0.00;;;;;;;;;;5064713;28;20254;-75
2022/08/24 10:36:57;;;;;;;0.00;0.00;;;;;;;;;;5066248;28;20243;-76
2022/08/24 10:39:39;;;;;;;0.00;0.00;;;;;;;;;;5068738;28;20357;-76
2022/08/24 10:43:32;;;;;;;0.00;0.00;;;;;;;;;;5071096;28;20249;-75
2022/08/24 10:45:06;;;;;;;0.00;0.00;;;;;;;;;;5065237;28;20208;-74
2022/08/24 10:47:35;;;;;;;0.00;0.00;;;;;;;;;;5054145;28;20275;-74
2022/08/24 10:50:11;;;;;;;0.00;0.00;;;;;;;;;;5065791;28;20484;-76
2022/08/24 10:52:57;;;;;;;0.00;0.00;;;;;;;;;;5058769;28;20215;-75
2022/08/24 10:55:26;;;;;;;0.00;0.00;;;;;;;;;;5057069;28;20204;-74
2022/08/24 10:58:06;;;;;;;0.00;0.00;;;;;;;;;;5079744;28;20275;-76
2022/08/24 11:00:32;;;;;;;0.00;0.00;;;;;;;;;;5058862;28;20422;-75
2022/08/24 11:03:10;;;;;;;0.00;0.00;;;;;;;;;;5077216;28;20203;-75
2022/08/24 11:05:39;;;;;;;0.00;0.00;;;;;;;;;;5059422;28;20312;-75
2022/08/24 11:08:06;;;;;;;0.00;0.00;;;;;;;;;;5076301;28;20590;-76
2022/08/24 11:10:35;;;;;;;0.00;0.00;;;;;;;;;;5058687;28;20243;-76
2022/08/24 11:13:14;;;;;;;0.00;0.00;;;;;;;;;;5077347;28;20193;-74
2022/08/24 11:15:47;;;;;;;0.00;0.00;;;;;;;;;;5059995;28;20347;-75
2022/08/24 11:18:13;;;;;;;0.00;0.00;;;;;;;;;;5075098;28;20211;-75
2022/08/24 11:20:41;;;;;;;0.00;0.00;;;;;;;;;;5059696;28;20243;-77
2022/08/24 11:23:08;;;;;;;0.00;0.00;;;;;;;;;;5076141;28;20270;-75
2022/08/24 11:25:37;;;;;;;0.00;0.00;;;;;;;;;;5059206;28;20451;-75
2022/08/24 11:28:05;;;;;;;0.00;0.00;;;;;;;;;;5076573;28;20399;-75
2022/08/24 11:30:31;;;;;;;0.00;0.00;;;;;;;;;;5058185;28;20298;-75
2022/08/24 11:33:00;;;;;;;0.00;0.00;;;;;;;;;;5077136;28;20355;-75
2022/08/24 11:35:27;;;;;;;0.00;0.00;;;;;;;;;;5057744;28;20329;-75
2022/08/24 11:37:56;;;;;;;0.00;0.00;;;;;;;;;;5077472;28;20204;-75
2022/08/24 11:40:26;;;;;;;0.05;0.05;;;;;;;;;;5056992;28;20246;-74
2022/08/24 11:43:08;;;;;;;0.00;0.00;;;;;;;;;;5077639;28;20230;-73
2022/08/24 11:45:37;;;;;;;0.00;0.00;;;;;;;;;;5049133;28;20254;-75
2022/08/24 11:48:11;;;;;;;0.00;0.00;;;;;;;;;;5075879;28;20199;-75
2022/08/24 11:50:40;;;;;;;0.00;0.00;;;;;;;;;;5058850;28;20298;-75
2022/08/24 11:53:11;;;;;;;0.00;0.00;;;;;;;;;;5076221;28;20196;-76
2022/08/24 11:55:40;;;;;;;0.00;0.00;;;;;;;;;;5058464;28;20247;-76
2022/08/24 11:58:10;;;;;;;0.00;0.00;;;;;;;;;;5075840;28;20240;-76
2022/08/24 12:00:45;;;;;;;0.00;0.00;;;;;;;;;;5058366;28;20314;-74
2022/08/24 12:03:18;;;;;;;0.00;0.00;;;;;;;;;;5075172;28;20197;-74
2022/08/24 12:05:48;;;;;;;0.05;0.05;;;;;;;;;;5059334;28;20290;-75
2022/08/24 12:08:19;;;;;;;0.00;0.00;;;;;;;;;;5074232;28;20204;-74
2022/08/24 12:10:50;;;;;;;0.00;0.00;;;;;;;;;;5059393;28;20251;-73
2022/08/24 12:13:24;;;;;;;0.00;0.00;;;;;;;;;;5073782;28;20404;-74
2022/08/24 12:15:54;;;;;;;0.00;0.00;;;;;;;;;;5059632;28;20250;-75
2022/08/24 12:18:24;;;;;;;0.00;0.00;;;;;;;;;;5073197;28;20196;-73
2022/08/24 12:20:51;;;;;;;0.00;0.00;;;;;;;;;;5059813;28;20239;-75
2022/08/24 12:23:20;;;;;;;0.00;0.00;;;;;;;;;;5073027;28;20371;-75
2022/08/24 12:26:03;;;;;;;0.00;0.00;;;;;;;;;;5059260;28;20269;-75
2022/08/24 12:28:32;;;;;;;0.00;0.00;;;;;;;;;;5071662;28;20488;-75
2022/08/24 12:31:03;;;;;;;0.00;0.00;;;;;;;;;;5060588;28;20262;-75
2022/08/24 12:33:31;;;;;;;0.00;0.00;;;;;;;;;;5071933;28;20188;-74
2022/08/24 12:36:00;;;;;;;0.00;0.00;;;;;;;;;;5060504;28;20258;-74
2022/08/24 12:38:29;;;;;;;0.00;0.00;;;;;;;;;;5071812;28;20204;-74
2022/08/24 12:40:56;;;;;;;0.00;0.00;;;;;;;;;;5060000;28;20238;-76
2022/08/24 12:43:25;;;;;;;0.00;0.00;;;;;;;;;;5072582;28;20457;-74
2022/08/24 12:45:51;;;;;;;0.00;0.00;;;;;;;;;;5059359;28;20339;-75
2022/08/24 12:48:22;;;;;;;0.00;0.00;;;;;;;;;;5072754;28;20206;-73
2022/08/24 12:51:10;;;;;;;0.00;0.00;;;;;;;;;;5059194;28;20243;-76
2022/08/24 12:53:43;;;;;;;0.00;0.00;;;;;;;;;;5070436;28;20388;-75
2022/08/24 12:56:28;;;;;;;0.00;0.00;;;;;;;;;;5061478;28;20246;-75
2022/08/24 12:58:58;;;;;;;0.00;0.00;;;;;;;;;;5067715;28;20204;-76
2022/08/24 13:01:26;;;;;;;0.00;0.00;;;;;;;;;;5063146;28;20239;-74
2022/08/24 13:04:04;;;;;;;0.00;0.00;;;;;;;;;;5068231;28;20230;-73
2022/08/24 13:06:37;;;;;;;0.00;0.00;;;;;;;;;;5063955;28;20496;-75
2022/08/24 13:09:06;;;;;;;0.00;0.00;;;;;;;;;;5066637;28;20192;-75
2022/08/24 13:11:33;;;;;;;0.00;0.00;;;;;;;;;;5064100;28;20570;-75
2022/08/24 13:14:14;;;;;;;0.00;0.00;;;;;;;;;;5067255;28;20222;-73
2022/08/24 13:16:46;;;;;;;0.00;0.00;;;;;;;;;;5065262;28;20473;-75
2022/08/24 13:19:15;;;;;;;0.00;0.00;;;;;;;;;;5065443;28;20204;-76
2022/08/24 13:21:44;;;;;;;0.00;0.00;;;;;;;;;;5063135;28;20243;-73
2022/08/24 13:24:38;;;;;;;0.00;0.00;;;;;;;;;;5066316;28;20295;-75
2022/08/24 13:27:38;;;;;;;0.00;0.00;;;;;;;;;;5036795;28;20246;-75
2022/08/24 13:30:06;;;;;;;0.00;0.00;;;;;;;;;;5063101;28;20284;-75
2022/08/24 13:32:36;;;;;;;0.00;0.00;;;;;;;;;;5051560;28;20223;-75
2022/08/24 13:35:29;;;;;;;0.00;0.00;;;;;;;;;;5063033;28;20206;-74
2022/08/24 13:38:10;;;;;;;0.00;0.00;;;;;;;;;;5090459;28;20216;-75
2022/08/24 13:40:44;;;;;;;0.00;0.00;;;;;;;;;;5056730;28;20562;-75
2022/08/24 13:43:15;;;;;;;0.00;0.00;;;;;;;;;;5073237;28;20215;-75
2022/08/24 13:45:45;;;;;;;0.00;0.00;;;;;;;;;;5055743;28;20257;-75
2022/08/24 13:48:20;;;;;;;0.00;0.00;;;;;;;;;;5073718;28;20196;-74
2022/08/24 13:51:00;;;;;;;0.00;0.00;;;;;;;;;;5057745;28;20238;-76
2022/08/24 13:53:45;;;;;;;0.00;0.00;;;;;;;;;;5071138;28;20200;-76
2022/08/24 13:56:18;;;;;;;0.00;0.00;;;;;;;;;;5061045;28;20235;-75
2022/08/24 13:58:49;;;;;;;0.00;0.00;;;;;;;;;;5068661;28;20200;-75
2022/08/24 14:01:23;;;;;;;0.00;0.00;;;;;;;;;;5061060;28;20239;-72
2022/08/24 14:04:02;;;;;;;0.00;0.00;;;;;;;;;;5067775;28;20233;-73
2022/08/24 14:06:34;;;;;;;0.00;0.00;;;;;;;;;;5062804;28;20239;-74
2022/08/24 14:09:09;;;;;;;0.00;0.00;;;;;;;;;;5066551;28;20425;-73
2022/08/24 14:11:40;;;;;;;0.00;0.00;;;;;;;;;;5063043;28;20298;-74
2022/08/24 14:14:10;;;;;;;0.00;0.00;;;;;;;;;;5065882;28;20442;-73
2022/08/24 14:19:34;;;;;;;0.00;0.00;;;;;;;;;;5062723;28;20538;-74
2022/08/24 14:22:06;;;;;;;0.00;0.00;;;;;;;;;;5066889;28;20437;-73
2022/08/24 14:24:37;;;;;;;0.00;0.00;;;;;;;;;;5062225;28;20299;-74
2022/08/24 14:27:08;;;;;;;0.00;0.00;;;;;;;;;;5067091;28;20243;-75
2022/08/24 14:29:45;;;;;;;0.00;0.00;;;;;;;;;;5062548;28;20391;-74
2022/08/24 14:32:33;;;;;;;0.00;0.00;;;;;;;;;;5067410;28;20309;-74
2022/08/24 14:35:05;;;;;;;0.00;0.00;;;;;;;;;;5062394;28;20510;-75
2022/08/24 14:37:37;;;;;;;0.00;0.00;;;;;;;;;;5067405;28;20232;-74
2022/08/24 14:40:09;;;;;;;0.00;0.00;;;;;;;;;;5062545;28;20235;-74
2022/08/24 14:42:37;;;;;;;0.00;0.00;;;;;;;;;;5050767;28;20215;-73
2022/08/24 14:45:05;;;;;;;0.00;0.00;;;;;;;;;;5061917;28;20274;-74
2022/08/24 14:47:37;;;;;;;0.00;0.00;;;;;;;;;;5050773;28;20211;-73
2022/08/24 14:50:07;;;;;;;0.00;0.00;;;;;;;;;;5062105;28;20233;-74
2022/08/24 14:52:47;;;;;;;0.00;0.00;;;;;;;;;;5050616;28;20230;-74
2022/08/24 14:55:18;;;;;;;0.00;0.00;;;;;;;;;;5053254;28;20369;-74
2022/08/24 14:57:49;;;;;;;0.00;0.00;;;;;;;;;;5075673;28;20223;-75
2022/08/24 15:00:20;;;;;;;0.00;0.00;;;;;;;;;;5052776;28;20310;-73
2022/08/24 15:03:07;;;;;;;0.00;0.00;;;;;;;;;;5075823;28;20208;-74
2022/08/24 15:05:38;;;;;;;0.00;0.00;;;;;;;;;;5055140;28;20246;-69
2022/08/24 15:08:07;;;;;;;0.00;0.00;;;;;;;;;;5073216;28;20450;-70
2022/08/24 15:10:37;;;;;;;0.00;0.00;;;;;;;;;;5055411;28;20261;-71